Terminal Aerodrome Forecast
Issued by NWS Mt. Holly, NJ

Current Version | Previous Version | Text Only | Print | Product List | Glossary On
Versions: 1 2 3 4 5 6 7 8 9 10 11 12 13 14 15 16 17 18 19 20 21 22 23 24 25 26
000
FTUS41 KPHI 032239 AAB
TAFACY
TAF AMD
KACY 032239Z 0323/0418 13005KT 2SM -FZRAPL BR OVC030
     FM040000 17008KT 2SM RA BR OVC008 WS020/21040KT
     FM040200 20012KT 2SM RA BR OVC005 WS015/23055KT
     FM040800 24010KT 2SM -RA BR OVC003 WS020/25045KT
     FM041200 29003KT 2SM -RA BR OVC005=

USA.gov is the U.S. government's official web portal to all federal, state and local government web resources and services.